Time;durP1;ratioP1;P1;durP2;ratioP2;P2;SDS_P1;SDS_P2;PMS_P1;PMS_P2;Temp;Humidity;BMP_temperature;BMP_pressure;BME280_temperature;BME280_humidity;BME280_pressure;Samples;Min_cycle;Max_cycle;Signal;HPM_P1;HPM_P2
2021/11/15 00:00:17;;;;;;;22.50;17.73;;;;;;;;;;5074061;28;20077;-73
2021/11/15 00:02:43;;;;;;;23.33;17.88;;;;;;;;;;5106908;28;20020;-73
2021/11/15 00:05:09;;;;;;;25.25;18.00;;;;;;;;;;5091674;28;20024;-74
2021/11/15 00:07:34;;;;;;;22.92;16.98;;;;;;;;;;5091333;28;20392;-73
2021/11/15 00:10:00;;;;;;;23.60;16.88;;;;;;;;;;5088278;28;20016;-73
2021/11/15 00:12:25;;;;;;;21.83;17.05;;;;;;;;;;5091313;28;20073;-73
2021/11/15 00:14:50;;;;;;;21.83;16.67;;;;;;;;;;5094355;28;20054;-73
2021/11/15 00:17:15;;;;;;;21.73;15.82;;;;;;;;;;5094165;28;20036;-73
2021/11/15 00:19:41;;;;;;;23.23;16.00;;;;;;;;;;5094424;28;20023;-73
2021/11/15 00:22:06;;;;;;;21.10;15.60;;;;;;;;;;5088063;28;20024;-72
2021/11/15 00:24:31;;;;;;;21.95;15.02;;;;;;;;;;5081329;28;20031;-72
2021/11/15 00:26:56;;;;;;;21.30;15.02;;;;;;;;;;5093627;28;20086;-73
2021/11/15 00:29:22;;;;;;;19.50;14.48;;;;;;;;;;5094405;28;20016;-72
2021/11/15 00:31:47;;;;;;;20.73;14.43;;;;;;;;;;5081701;28;20082;-73
2021/11/15 00:34:12;;;;;;;20.65;14.43;;;;;;;;;;5088915;28;20100;-71
2021/11/15 00:36:37;;;;;;;19.58;14.23;;;;;;;;;;5094610;28;20388;-72
2021/11/15 00:39:04;;;;;;;16.20;12.38;;;;;;;;;;5090494;28;20020;-72
2021/11/15 00:41:29;;;;;;;15.73;11.90;;;;;;;;;;5083879;28;20101;-72
2021/11/15 00:43:54;;;;;;;16.92;12.23;;;;;;;;;;5094876;28;20059;-72
2021/11/15 00:46:21;;;;;;;17.40;12.32;;;;;;;;;;5093098;28;20027;-72
2021/11/15 00:48:46;;;;;;;16.33;11.65;;;;;;;;;;5095061;28;20059;-72
2021/11/15 00:51:11;;;;;;;16.00;11.50;;;;;;;;;;5095274;28;20062;-71
2021/11/15 00:53:36;;;;;;;15.75;10.57;;;;;;;;;;5077028;28;20443;-72
2021/11/15 00:56:02;;;;;;;16.10;11.35;;;;;;;;;;5089130;28;20022;-73
2021/11/15 00:58:27;;;;;;;17.05;10.73;;;;;;;;;;5089749;28;20108;-73
2021/11/15 01:00:52;;;;;;;12.68;9.73;;;;;;;;;;5087763;28;20119;-72
2021/11/15 01:03:17;;;;;;;14.07;10.63;;;;;;;;;;5065624;28;20431;-73
2021/11/15 01:05:49;;;;;;;13.25;9.80;;;;;;;;;;5094671;28;20032;-72
2021/11/15 01:08:16;;;;;;;11.90;9.18;;;;;;;;;;5093644;28;20031;-72
2021/11/15 01:10:41;;;;;;;14.60;9.77;;;;;;;;;;5076129;28;20025;-73
2021/11/15 01:13:07;;;;;;;13.73;10.23;;;;;;;;;;5075172;28;20078;-72
2021/11/15 01:15:32;;;;;;;12.45;9.57;;;;;;;;;;5116526;27;20070;-72
2021/11/15 01:17:58;;;;;;;13.82;9.45;;;;;;;;;;5092563;28;20020;-72
2021/11/15 01:20:26;;;;;;;11.27;8.05;;;;;;;;;;5094138;28;20020;-72
2021/11/15 01:22:51;;;;;;;12.98;8.43;;;;;;;;;;5079089;28;20020;-72
2021/11/15 01:25:16;;;;;;;15.02;9.80;;;;;;;;;;5091909;28;20036;-72
2021/11/15 01:27:42;;;;;;;13.32;9.00;;;;;;;;;;5093148;28;20511;-72
2021/11/15 01:30:10;;;;;;;11.32;8.73;;;;;;;;;;5092850;28;20503;-72
2021/11/15 01:32:35;;;;;;;12.63;9.75;;;;;;;;;;5093830;28;20024;-72
2021/11/15 01:35:01;;;;;;;13.15;9.68;;;;;;;;;;5094217;28;20024;-73
2021/11/15 01:37:26;;;;;;;11.82;9.45;;;;;;;;;;5093752;28;20472;-72
2021/11/15 01:39:51;;;;;;;11.70;9.13;;;;;;;;;;5091612;28;20028;-72
2021/11/15 01:42:16;;;;;;;15.60;10.93;;;;;;;;;;5093065;28;20276;-72
2021/11/15 01:44:42;;;;;;;12.27;9.43;;;;;;;;;;5093923;28;20035;-72
2021/11/15 01:47:07;;;;;;;13.40;9.60;;;;;;;;;;5094245;28;20452;-73
2021/11/15 01:49:33;;;;;;;14.63;9.77;;;;;;;;;;5092467;28;20073;-72
2021/11/15 01:51:58;;;;;;;14.23;9.45;;;;;;;;;;5084590;28;20114;-73
2021/11/15 01:54:23;;;;;;;12.65;9.82;;;;;;;;;;5073131;28;20456;-72
2021/11/15 01:56:49;;;;;;;15.48;10.85;;;;;;;;;;5090974;28;20046;-72
2021/11/15 01:59:15;;;;;;;16.42;12.27;;;;;;;;;;5092834;28;20024;-71
2021/11/15 02:01:40;;;;;;;17.83;12.65;;;;;;;;;;5081091;28;20275;-72
2021/11/15 02:04:05;;;;;;;18.55;14.25;;;;;;;;;;5088957;28;20023;-73
2021/11/15 02:06:30;;;;;;;21.92;14.63;;;;;;;;;;5092542;28;20032;-72
2021/11/15 02:08:56;;;;;;;20.10;14.40;;;;;;;;;;5090295;28;20026;-72
2021/11/15 02:11:21;;;;;;;22.60;15.55;;;;;;;;;;5090106;28;20050;-72
2021/11/15 02:13:46;;;;;;;23.52;15.63;;;;;;;;;;5093611;28;20063;-73
2021/11/15 02:16:12;;;;;;;22.80;16.35;;;;;;;;;;5092228;28;20157;-73
2021/11/15 02:18:37;;;;;;;24.45;16.15;;;;;;;;;;5091831;28;20132;-73
2021/11/15 02:21:04;;;;;;;22.92;15.93;;;;;;;;;;5092277;28;20020;-74
2021/11/15 02:23:30;;;;;;;26.00;17.33;;;;;;;;;;5073216;28;20028;-73
2021/11/15 02:25:56;;;;;;;24.63;16.30;;;;;;;;;;5088286;28;20217;-73
2021/11/15 02:28:32;;;;;;;23.50;15.95;;;;;;;;;;5088692;28;20142;-73
2021/11/15 02:30:57;;;;;;;25.15;16.83;;;;;;;;;;5090344;28;20365;-73
2021/11/15 02:33:23;;;;;;;23.85;17.27;;;;;;;;;;5093205;28;20107;-73
2021/11/15 02:35:48;;;;;;;24.30;16.95;;;;;;;;;;5090573;28;20013;-73
2021/11/15 02:38:13;;;;;;;23.20;16.15;;;;;;;;;;5090859;28;20110;-73
2021/11/15 02:40:39;;;;;;;23.20;16.45;;;;;;;;;;5091712;28;20455;-74
2021/11/15 02:43:05;;;;;;;24.73;16.35;;;;;;;;;;5092448;28;20095;-73
2021/11/15 02:45:31;;;;;;;24.77;17.25;;;;;;;;;;5092198;28;20020;-73
2021/11/15 02:47:57;;;;;;;22.70;15.80;;;;;;;;;;5091563;28;20089;-73
2021/11/15 02:50:25;;;;;;;23.70;16.73;;;;;;;;;;5092650;28;20434;-74
2021/11/15 02:52:54;;;;;;;23.33;16.40;;;;;;;;;;5083755;28;20024;-74
2021/11/15 02:55:21;;;;;;;23.92;17.02;;;;;;;;;;5082819;28;20061;-74
2021/11/15 02:57:46;;;;;;;24.75;16.95;;;;;;;;;;5086748;28;20023;-73
2021/11/15 03:00:16;;;;;;;23.63;16.95;;;;;;;;;;5068304;28;20020;-72
2021/11/15 03:02:41;;;;;;;24.30;16.30;;;;;;;;;;5079027;28;20024;-73
2021/11/15 03:05:07;;;;;;;27.55;17.70;;;;;;;;;;5091033;28;20032;-73
2021/11/15 03:07:32;;;;;;;25.30;17.10;;;;;;;;;;5092142;28;20028;-72
2021/11/15 03:09:57;;;;;;;27.45;17.30;;;;;;;;;;5073843;28;20039;-72
2021/11/15 03:12:35;;;;;;;27.30;18.23;;;;;;;;;;5092330;28;20028;-73
2021/11/15 03:15:00;;;;;;;24.63;17.60;;;;;;;;;;5091879;28;20034;-73
2021/11/15 03:17:25;;;;;;;23.85;17.23;;;;;;;;;;5091881;28;20024;-73
2021/11/15 03:19:51;;;;;;;24.15;15.88;;;;;;;;;;5092296;28;20391;-73
2021/11/15 03:22:16;;;;;;;27.25;18.20;;;;;;;;;;5081229;28;20036;-72
2021/11/15 03:24:42;;;;;;;24.23;17.05;;;;;;;;;;5082543;28;20021;-73
2021/11/15 03:27:07;;;;;;;23.60;16.73;;;;;;;;;;5080438;28;20136;-73
2021/11/15 03:29:32;;;;;;;23.45;16.65;;;;;;;;;;5086381;28;20056;-73
2021/11/15 03:31:58;;;;;;;25.38;16.98;;;;;;;;;;5091932;28;20070;-73
2021/11/15 03:34:23;;;;;;;25.73;17.20;;;;;;;;;;5092073;28;20024;-73
2021/11/15 03:36:48;;;;;;;26.08;18.10;;;;;;;;;;5091834;28;20464;-73
2021/11/15 03:39:14;;;;;;;24.83;16.83;;;;;;;;;;5091002;28;20032;-73
2021/11/15 03:41:40;;;;;;;24.75;16.70;;;;;;;;;;5090443;28;20479;-73
2021/11/15 03:44:06;;;;;;;23.92;16.85;;;;;;;;;;5090429;28;20107;-73
2021/11/15 03:46:32;;;;;;;24.80;18.10;;;;;;;;;;5091762;28;20421;-74
2021/11/15 03:48:58;;;;;;;25.48;17.98;;;;;;;;;;5091372;28;20119;-72
2021/11/15 03:51:23;;;;;;;25.52;17.60;;;;;;;;;;5091034;28;20447;-72
2021/11/15 03:53:48;;;;;;;26.00;17.48;;;;;;;;;;5076880;28;20429;-72
2021/11/15 03:56:16;;;;;;;25.88;18.20;;;;;;;;;;5088190;28;20024;-72
2021/11/15 03:58:43;;;;;;;23.67;16.95;;;;;;;;;;5090612;28;20016;-72
2021/11/15 04:01:08;;;;;;;28.45;18.75;;;;;;;;;;5071736;28;20028;-72
2021/11/15 04:03:36;;;;;;;27.85;18.77;;;;;;;;;;5091781;28;20039;-72
2021/11/15 04:06:05;;;;;;;25.83;17.88;;;;;;;;;;5091514;28;20073;-72
2021/11/15 04:08:32;;;;;;;26.85;17.58;;;;;;;;;;5091210;28;20036;-72
2021/11/15 04:10:58;;;;;;;29.75;18.98;;;;;;;;;;5075280;28;20115;-72
2021/11/15 04:13:25;;;;;;;29.55;19.50;;;;;;;;;;5091687;28;20476;-71
2021/11/15 04:15:52;;;;;;;30.98;20.67;;;;;;;;;;5074132;28;20089;-72
2021/11/15 04:18:19;;;;;;;31.42;20.98;;;;;;;;;;5086110;28;20028;-71
2021/11/15 04:20:44;;;;;;;29.58;20.60;;;;;;;;;;5083155;28;20058;-72
2021/11/15 04:23:09;;;;;;;34.35;21.15;;;;;;;;;;5075209;28;20469;-71
2021/11/15 04:25:35;;;;;;;31.73;20.65;;;;;;;;;;5070942;28;20118;-71
2021/11/15 04:28:00;;;;;;;34.92;21.73;;;;;;;;;;5087219;28;20501;-72
2021/11/15 04:30:30;;;;;;;36.03;22.73;;;;;;;;;;5090589;28;20024;-72
2021/11/15 04:32:56;;;;;;;33.92;22.00;;;;;;;;;;5090484;28;20115;-71
2021/11/15 04:35:21;;;;;;;38.67;24.10;;;;;;;;;;5091302;28;20107;-72
2021/11/15 04:37:46;;;;;;;39.65;24.50;;;;;;;;;;5089662;28;20027;-72
2021/11/15 04:40:12;;;;;;;43.38;25.00;;;;;;;;;;5089421;28;20027;-72
2021/11/15 04:42:37;;;;;;;42.00;26.17;;;;;;;;;;5091468;28;20120;-72
2021/11/15 04:45:04;;;;;;;39.55;24.08;;;;;;;;;;5090383;28;20024;-71
2021/11/15 04:47:29;;;;;;;43.58;27.67;;;;;;;;;;5088117;28;20016;-72
2021/11/15 04:49:55;;;;;;;46.63;27.60;;;;;;;;;;5090132;28;20035;-72
2021/11/15 04:52:20;;;;;;;50.67;28.33;;;;;;;;;;5079072;28;20031;-72
2021/11/15 04:54:45;;;;;;;46.80;28.65;;;;;;;;;;5078303;28;20090;-71
2021/11/15 04:57:10;;;;;;;49.00;29.48;;;;;;;;;;5088865;28;20168;-72
2021/11/15 04:59:36;;;;;;;54.45;30.08;;;;;;;;;;5090361;28;20020;-71
2021/11/15 05:02:01;;;;;;;54.42;31.27;;;;;;;;;;5079969;28;20035;-71
2021/11/15 05:04:26;;;;;;;56.85;32.15;;;;;;;;;;5093283;28;20023;-72
2021/11/15 05:06:52;;;;;;;54.40;32.03;;;;;;;;;;5095087;28;20028;-72
2021/11/15 05:09:17;;;;;;;56.95;32.03;;;;;;;;;;5093147;28;20028;-72
2021/11/15 05:11:42;;;;;;;55.47;32.67;;;;;;;;;;5094472;28;20031;-72
2021/11/15 05:14:07;;;;;;;58.47;32.40;;;;;;;;;;5087764;28;20064;-72
2021/11/15 05:16:33;;;;;;;57.70;32.78;;;;;;;;;;5092635;28;20054;-72
2021/11/15 05:18:59;;;;;;;58.78;32.67;;;;;;;;;;5093891;28;20048;-72
2021/11/15 05:21:24;;;;;;;60.10;33.30;;;;;;;;;;5089551;28;20115;-72
2021/11/15 05:23:52;;;;;;;58.30;32.78;;;;;;;;;;5072198;28;20119;-72
2021/11/15 05:26:17;;;;;;;57.25;32.58;;;;;;;;;;5083794;28;20027;-72
2021/11/15 05:28:43;;;;;;;59.30;33.30;;;;;;;;;;5086056;28;20412;-72
2021/11/15 05:31:08;;;;;;;60.47;33.38;;;;;;;;;;5085345;28;20050;-73
2021/11/15 05:33:34;;;;;;;64.47;35.45;;;;;;;;;;5076799;28;20037;-73
2021/11/15 05:36:00;;;;;;;57.60;33.10;;;;;;;;;;5088463;28;20024;-73
2021/11/15 05:38:25;;;;;;;61.08;33.75;;;;;;;;;;5092350;28;20051;-72
2021/11/15 05:40:50;;;;;;;62.08;34.28;;;;;;;;;;5088286;28;20047;-72
2021/11/15 05:43:15;;;;;;;62.47;33.10;;;;;;;;;;5093228;28;20073;-71
2021/11/15 05:45:40;;;;;;;57.50;32.95;;;;;;;;;;5093719;28;20035;-72
2021/11/15 05:48:06;;;;;;;58.55;33.58;;;;;;;;;;5075676;28;20031;-72
2021/11/15 05:50:31;;;;;;;60.50;33.70;;;;;;;;;;5093556;28;20028;-73
2021/11/15 05:52:57;;;;;;;68.53;35.40;;;;;;;;;;5077395;28;20025;-72
2021/11/15 05:55:23;;;;;;;66.18;35.13;;;;;;;;;;5072944;28;20032;-72
2021/11/15 05:57:49;;;;;;;60.60;33.67;;;;;;;;;;5076815;28;20032;-72
2021/11/15 06:00:16;;;;;;;60.47;33.53;;;;;;;;;;5092923;28;20107;-71
2021/11/15 06:02:42;;;;;;;61.50;33.72;;;;;;;;;;5093532;28;20028;-72
2021/11/15 06:05:07;;;;;;;61.58;33.65;;;;;;;;;;5091052;28;20028;-71
2021/11/15 06:07:33;;;;;;;60.80;34.58;;;;;;;;;;5093197;28;20032;-72
2021/11/15 06:09:58;;;;;;;65.70;34.67;;;;;;;;;;5091873;28;20100;-72
2021/11/15 06:12:23;;;;;;;58.70;32.67;;;;;;;;;;5084847;28;20430;-72
2021/11/15 06:14:48;;;;;;;52.38;30.10;;;;;;;;;;5064847;28;20040;-71
2021/11/15 06:17:15;;;;;;;44.80;30.55;;;;;;;;;;5078250;28;20028;-72
2021/11/15 06:19:40;;;;;;;43.00;27.27;;;;;;;;;;5090795;28;20384;-72
2021/11/15 06:22:05;;;;;;;40.88;27.50;;;;;;;;;;5085751;28;20016;-72
2021/11/15 06:24:31;;;;;;;38.08;26.05;;;;;;;;;;5081844;28;20028;-72
2021/11/15 06:26:56;;;;;;;34.53;23.63;;;;;;;;;;5073090;28;20040;-72
2021/11/15 06:29:21;;;;;;;34.95;23.88;;;;;;;;;;5091574;28;20039;-72
2021/11/15 06:31:47;;;;;;;33.67;23.23;;;;;;;;;;5079618;28;20074;-73
2021/11/15 06:34:12;;;;;;;34.55;24.05;;;;;;;;;;5083296;28;20020;-73
2021/11/15 06:36:37;;;;;;;36.60;24.02;;;;;;;;;;5091610;28;20126;-72
2021/11/15 06:39:03;;;;;;;35.10;22.90;;;;;;;;;;5091619;28;20035;-72
2021/11/15 06:41:28;;;;;;;34.45;22.90;;;;;;;;;;5091051;28;20032;-72
2021/11/15 06:43:53;;;;;;;35.50;22.60;;;;;;;;;;5092803;28;20016;-73
2021/11/15 06:46:19;;;;;;;33.28;22.50;;;;;;;;;;5085341;28;20024;-72
2021/11/15 06:48:44;;;;;;;32.53;21.45;;;;;;;;;;5087730;28;20054;-72
2021/11/15 06:51:10;;;;;;;32.83;21.63;;;;;;;;;;5092601;28;20044;-72
2021/11/15 06:53:35;;;;;;;31.38;22.00;;;;;;;;;;5068507;28;20039;-72
2021/11/15 06:56:01;;;;;;;33.35;22.00;;;;;;;;;;5088389;28;20012;-71
2021/11/15 06:58:27;;;;;;;33.78;21.48;;;;;;;;;;5085826;28;20381;-72
2021/11/15 07:00:52;;;;;;;34.55;22.30;;;;;;;;;;5092128;28;20099;-72
2021/11/15 07:03:18;;;;;;;32.30;21.45;;;;;;;;;;5074689;28;20120;-72
2021/11/15 07:05:43;;;;;;;33.53;21.90;;;;;;;;;;5070596;28;20052;-72
2021/11/15 07:08:08;;;;;;;34.60;22.73;;;;;;;;;;5110100;27;20110;-73
2021/11/15 07:10:34;;;;;;;36.28;21.65;;;;;;;;;;5084397;28;20393;-73
2021/11/15 07:13:00;;;;;;;37.63;23.65;;;;;;;;;;5078657;28;20020;-73
2021/11/15 07:15:25;;;;;;;35.33;24.00;;;;;;;;;;5073674;28;20153;-73
2021/11/15 07:17:50;;;;;;;35.17;22.95;;;;;;;;;;5088509;28;20107;-73
2021/11/15 07:20:16;;;;;;;33.38;22.48;;;;;;;;;;5086382;28;20388;-72
2021/11/15 07:22:44;;;;;;;36.47;22.40;;;;;;;;;;5079391;28;20491;-72
2021/11/15 07:25:09;;;;;;;35.40;24.08;;;;;;;;;;5084613;28;20032;-73
2021/11/15 07:27:34;;;;;;;39.47;24.98;;;;;;;;;;5088758;28;20070;-72
2021/11/15 07:29:59;;;;;;;38.65;24.42;;;;;;;;;;5083393;28;20030;-73
2021/11/15 07:32:25;;;;;;;43.58;25.83;;;;;;;;;;5091333;28;20043;-73
2021/11/15 07:34:50;;;;;;;39.20;25.77;;;;;;;;;;5089758;28;20024;-73
2021/11/15 07:37:15;;;;;;;38.60;24.77;;;;;;;;;;5076549;28;20461;-73
2021/11/15 07:39:44;;;;;;;41.90;26.17;;;;;;;;;;5083472;28;20035;-72
2021/11/15 07:42:10;;;;;;;43.25;27.08;;;;;;;;;;5085945;28;20055;-71
2021/11/15 07:44:35;;;;;;;41.10;27.20;;;;;;;;;;5082358;28;20085;-71
2021/11/15 07:47:00;;;;;;;38.22;24.83;;;;;;;;;;5090639;28;20494;-72
2021/11/15 07:49:26;;;;;;;39.10;25.08;;;;;;;;;;5082873;28;20028;-72
2021/11/15 07:51:51;;;;;;;36.10;23.30;;;;;;;;;;5093280;28;20500;-72
2021/11/15 07:54:16;;;;;;;37.92;24.38;;;;;;;;;;5088673;28;20492;-72
2021/11/15 07:56:41;;;;;;;36.95;24.48;;;;;;;;;;5083635;28;20015;-71
2021/11/15 07:59:06;;;;;;;36.40;23.10;;;;;;;;;;5096542;28;20465;-72
2021/11/15 08:01:33;;;;;;;37.47;22.88;;;;;;;;;;5083023;28;20436;-71
2021/11/15 08:03:58;;;;;;;37.72;23.83;;;;;;;;;;5091636;28;20190;-72
2021/11/15 08:06:23;;;;;;;38.15;24.27;;;;;;;;;;5090799;28;20607;-72
2021/11/15 08:08:49;;;;;;;34.80;22.88;;;;;;;;;;5084936;28;20020;-72
2021/11/15 08:11:15;;;;;;;36.72;23.35;;;;;;;;;;5088063;28;20062;-72
2021/11/15 08:13:40;;;;;;;32.88;22.77;;;;;;;;;;5077058;28;20082;-72
2021/11/15 08:16:05;;;;;;;35.92;22.52;;;;;;;;;;5089819;28;20145;-73
2021/11/15 08:18:31;;;;;;;34.58;22.10;;;;;;;;;;5069320;28;20029;-72
2021/11/15 08:20:56;;;;;;;35.92;23.63;;;;;;;;;;5078821;28;20012;-73
2021/11/15 08:23:21;;;;;;;33.70;22.17;;;;;;;;;;5078596;28;20016;-72
2021/11/15 08:25:51;;;;;;;33.08;21.30;;;;;;;;;;5090880;28;20015;-73
2021/11/15 08:28:17;;;;;;;34.63;21.80;;;;;;;;;;5085783;28;20125;-72
2021/11/15 08:30:42;;;;;;;31.35;20.92;;;;;;;;;;5086113;28;20052;-72
2021/11/15 08:33:08;;;;;;;28.17;19.17;;;;;;;;;;5071633;28;20021;-72
2021/11/15 08:35:33;;;;;;;28.33;18.88;;;;;;;;;;5084332;28;20031;-71
2021/11/15 08:38:18;;;;;;;31.05;19.70;;;;;;;;;;5088825;28;20386;-72
2021/11/15 08:40:47;;;;;;;27.30;19.25;;;;;;;;;;5090930;28;20665;-72
2021/11/15 08:43:13;;;;;;;30.48;19.90;;;;;;;;;;5100415;28;20023;-72
2021/11/15 08:45:38;;;;;;;31.52;19.40;;;;;;;;;;5103726;28;20115;-72
2021/11/15 08:48:04;;;;;;;26.77;17.88;;;;;;;;;;5094678;28;20056;-71
2021/11/15 08:50:29;;;;;;;26.27;18.52;;;;;;;;;;5067976;28;20032;-71
2021/11/15 08:52:56;;;;;;;26.92;17.95;;;;;;;;;;5083173;28;20426;-72
2021/11/15 08:55:21;;;;;;;27.70;18.95;;;;;;;;;;5093290;28;20024;-73
2021/11/15 08:57:46;;;;;;;27.17;17.88;;;;;;;;;;5093995;28;20030;-72
2021/11/15 09:00:12;;;;;;;28.23;18.80;;;;;;;;;;5084628;28;20024;-71
2021/11/15 09:02:37;;;;;;;26.23;17.98;;;;;;;;;;5073320;28;20076;-73
2021/11/15 09:05:02;;;;;;;27.67;18.63;;;;;;;;;;5094492;28;20031;-72
2021/11/15 09:07:28;;;;;;;25.73;17.02;;;;;;;;;;5095513;28;20028;-72
2021/11/15 09:09:53;;;;;;;26.63;16.95;;;;;;;;;;5084714;28;20499;-71
2021/11/15 09:12:18;;;;;;;25.30;17.00;;;;;;;;;;5072847;28;20029;-72
2021/11/15 09:14:44;;;;;;;26.98;17.55;;;;;;;;;;5076875;28;20049;-72
2021/11/15 09:17:09;;;;;;;25.17;16.30;;;;;;;;;;5087564;28;20024;-72
2021/11/15 09:19:34;;;;;;;27.73;18.17;;;;;;;;;;5086956;28;20047;-71
2021/11/15 09:22:00;;;;;;;27.45;17.67;;;;;;;;;;5073558;28;20020;-72
2021/11/15 09:24:25;;;;;;;27.73;18.02;;;;;;;;;;5082041;28;20069;-71
2021/11/15 09:26:51;;;;;;;27.60;18.23;;;;;;;;;;5085705;28;20479;-71
2021/11/15 09:29:18;;;;;;;24.60;17.48;;;;;;;;;;5097304;28;20032;-71
2021/11/15 09:31:43;;;;;;;28.95;19.15;;;;;;;;;;5089077;28;20047;-71
2021/11/15 09:34:08;;;;;;;29.25;17.60;;;;;;;;;;5104480;28;20439;-72
2021/11/15 09:36:34;;;;;;;28.75;19.70;;;;;;;;;;5083995;28;20032;-71
2021/11/15 09:38:59;;;;;;;28.45;18.85;;;;;;;;;;5078086;28;20058;-71
2021/11/15 09:41:25;;;;;;;26.95;18.45;;;;;;;;;;5090738;28;20023;-71
2021/11/15 09:43:51;;;;;;;30.50;19.20;;;;;;;;;;5089232;28;20035;-72
2021/11/15 09:46:19;;;;;;;25.42;16.83;;;;;;;;;;5087129;28;20028;-72
2021/11/15 09:48:45;;;;;;;28.73;18.55;;;;;;;;;;5085091;28;20031;-72
2021/11/15 09:51:11;;;;;;;25.58;18.95;;;;;;;;;;5090659;28;20202;-73
2021/11/15 09:53:37;;;;;;;28.55;18.02;;;;;;;;;;5073735;28;20039;-72
2021/11/15 09:56:03;;;;;;;24.08;17.33;;;;;;;;;;5089053;28;20019;-72
2021/11/15 09:58:29;;;;;;;25.63;18.08;;;;;;;;;;5082519;28;20062;-73
2021/11/15 10:00:54;;;;;;;24.77;17.10;;;;;;;;;;5090261;28;20044;-72
2021/11/15 10:03:19;;;;;;;26.65;17.17;;;;;;;;;;5087659;28;20074;-72
2021/11/15 10:05:45;;;;;;;25.73;17.88;;;;;;;;;;5088807;28;20469;-72
2021/11/15 10:08:12;;;;;;;26.90;19.00;;;;;;;;;;5084291;28;20110;-72
2021/11/15 10:10:55;;;;;;;26.38;17.50;;;;;;;;;;5087389;28;20028;-72
2021/11/15 10:13:31;;;;;;;25.10;15.95;;;;;;;;;;5104661;28;20031;-72
2021/11/15 10:16:05;;;;;;;24.60;17.70;;;;;;;;;;5089478;28;20027;-67
2021/11/15 10:18:32;;;;;;;21.23;15.88;;;;;;;;;;5091513;28;20020;-78
2021/11/15 10:20:58;;;;;;;24.45;18.67;;;;;;;;;;5079958;28;20385;-67
2021/11/15 10:23:31;;;;;;;26.13;18.23;;;;;;;;;;5074994;28;20028;-73
2021/11/15 10:26:00;;;;;;;23.65;16.80;;;;;;;;;;5085161;28;20031;-72
2021/11/15 10:28:27;;;;;;;23.05;17.23;;;;;;;;;;5101581;28;20493;-75
2021/11/15 10:30:52;;;;;;;24.45;17.77;;;;;;;;;;5096696;28;20012;-74
2021/11/15 10:33:18;;;;;;;27.15;17.98;;;;;;;;;;5085825;28;20085;-74
2021/11/15 10:35:46;;;;;;;25.80;18.08;;;;;;;;;;5092169;28;20047;-74
2021/11/15 10:38:13;;;;;;;28.63;18.98;;;;;;;;;;5079801;28;20016;-74
2021/11/15 10:40:38;;;;;;;24.92;17.25;;;;;;;;;;5093039;28;20028;-77
2021/11/15 10:43:08;;;;;;;25.40;17.90;;;;;;;;;;5083972;28;20030;-77
2021/11/15 10:45:35;;;;;;;26.33;18.27;;;;;;;;;;5090882;28;20415;-77
2021/11/15 10:48:02;;;;;;;25.00;17.83;;;;;;;;;;5089054;28;20088;-78
2021/11/15 10:50:35;;;;;;;27.35;18.67;;;;;;;;;;5093047;28;20024;-77
2021/11/15 10:53:24;;;;;;;24.27;17.90;;;;;;;;;;5082877;28;20024;-78
2021/11/15 10:56:11;;;;;;;25.92;18.50;;;;;;;;;;5079772;28;20028;-78
2021/11/15 10:58:37;;;;;;;25.75;18.00;;;;;;;;;;5097012;27;20034;-77
2021/11/15 11:01:05;;;;;;;28.45;18.88;;;;;;;;;;5086498;28;20403;-77
2021/11/15 11:03:30;;;;;;;28.15;18.85;;;;;;;;;;5087666;28;20526;-77
2021/11/15 11:06:00;;;;;;;27.42;18.38;;;;;;;;;;5099043;28;20024;-77
2021/11/15 11:08:26;;;;;;;25.65;19.13;;;;;;;;;;5074381;28;20016;-77
2021/11/15 11:11:07;;;;;;;26.70;18.55;;;;;;;;;;5075962;28;20051;-78
2021/11/15 11:13:48;;;;;;;26.65;18.48;;;;;;;;;;5084702;28;20023;-78
2021/11/15 11:16:14;;;;;;;26.92;18.83;;;;;;;;;;5085338;28;20253;-79
2021/11/15 11:18:45;;;;;;;28.90;20.20;;;;;;;;;;5067717;28;20570;-79
2021/11/15 11:26:34;;;;;;;26.00;18.67;;;;;;;;;;5090975;28;20035;-78
2021/11/15 11:29:02;;;;;;;28.10;18.85;;;;;;;;;;5097972;28;20024;-79
2021/11/15 11:31:31;;;;;;;26.77;19.02;;;;;;;;;;5088852;28;20772;-78
2021/11/15 11:33:57;;;;;;;25.27;17.92;;;;;;;;;;5080615;28;20031;-78
2021/11/15 11:36:22;;;;;;;25.40;18.42;;;;;;;;;;5083558;28;20042;-77
2021/11/15 11:38:48;;;;;;;27.05;18.73;;;;;;;;;;5088921;28;20048;-77
2021/11/15 11:41:14;;;;;;;25.02;17.45;;;;;;;;;;5079328;28;20395;-78
2021/11/15 11:43:42;;;;;;;23.15;17.08;;;;;;;;;;5092236;28;20054;-78
2021/11/15 11:46:08;;;;;;;23.73;17.40;;;;;;;;;;5077036;28;20017;-78
2021/11/15 11:48:34;;;;;;;25.30;17.52;;;;;;;;;;5086277;28;20385;-76
2021/11/15 11:51:00;;;;;;;23.38;17.90;;;;;;;;;;5081543;28;20465;-77
2021/11/15 11:53:28;;;;;;;24.95;17.63;;;;;;;;;;5075575;28;20030;-78
2021/11/15 11:55:54;;;;;;;24.48;16.92;;;;;;;;;;5091679;28;20110;-77
2021/11/15 11:58:33;;;;;;;23.38;17.58;;;;;;;;;;5085313;28;20568;-78
2021/11/15 12:01:00;;;;;;;20.95;16.30;;;;;;;;;;5085530;28;20118;-78
2021/11/15 12:03:26;;;;;;;23.67;17.85;;;;;;;;;;5098445;28;20486;-78
2021/11/15 12:05:52;;;;;;;22.40;15.80;;;;;;;;;;5102496;28;20031;-77
2021/11/15 12:08:17;;;;;;;24.58;17.25;;;;;;;;;;5081015;28;20032;-79
2021/11/15 12:10:46;;;;;;;22.80;16.88;;;;;;;;;;5081910;28;20031;-77
2021/11/15 12:13:12;;;;;;;21.55;16.83;;;;;;;;;;5097340;28;20459;-79
2021/11/15 12:15:41;;;;;;;23.88;16.98;;;;;;;;;;5084180;28;20151;-78
2021/11/15 12:18:25;;;;;;;22.52;16.88;;;;;;;;;;5085956;28;20150;-77
2021/11/15 12:21:03;;;;;;;22.90;17.05;;;;;;;;;;5073200;28;20101;-78
2021/11/15 12:23:33;;;;;;;24.08;17.08;;;;;;;;;;5080679;28;20033;-78
2021/11/15 12:26:06;;;;;;;22.40;17.58;;;;;;;;;;5108968;28;20023;-78
2021/11/15 12:28:32;;;;;;;23.67;16.85;;;;;;;;;;5087247;28;20099;-79
2021/11/15 12:30:58;;;;;;;22.85;17.17;;;;;;;;;;5081233;28;20075;-79
2021/11/15 12:33:24;;;;;;;22.92;16.23;;;;;;;;;;5082077;28;20072;-77
2021/11/15 12:35:51;;;;;;;19.38;15.63;;;;;;;;;;5075037;28;20217;-77
2021/11/15 12:38:35;;;;;;;23.17;17.48;;;;;;;;;;5072037;28;20115;-76
2021/11/15 12:41:01;;;;;;;21.52;16.45;;;;;;;;;;5074951;28;20070;-77
2021/11/15 12:43:27;;;;;;;22.65;17.08;;;;;;;;;;5117272;27;20385;-76
2021/11/15 12:46:13;;;;;;;21.77;17.08;;;;;;;;;;5065907;28;20029;-75
2021/11/15 12:48:40;;;;;;;22.40;16.38;;;;;;;;;;5088661;28;20037;-76
2021/11/15 12:51:17;;;;;;;20.25;16.65;;;;;;;;;;5089684;28;20028;-77
2021/11/15 12:53:47;;;;;;;22.52;16.58;;;;;;;;;;5079267;28;20021;-76
2021/11/15 12:56:14;;;;;;;22.63;17.05;;;;;;;;;;5077361;28;20020;-75
2021/11/15 12:58:45;;;;;;;22.45;16.90;;;;;;;;;;5080754;28;20029;-75
2021/11/15 13:01:12;;;;;;;22.60;17.15;;;;;;;;;;5091771;28;20425;-77
2021/11/15 13:03:38;;;;;;;24.55;17.10;;;;;;;;;;5077566;28;20446;-76
2021/11/15 13:06:03;;;;;;;23.67;17.70;;;;;;;;;;5073709;28;20465;-77
2021/11/15 13:08:29;;;;;;;22.48;16.52;;;;;;;;;;5082802;28;20049;-77
2021/11/15 13:10:54;;;;;;;22.63;17.30;;;;;;;;;;5080747;28;20027;-76
2021/11/15 13:13:19;;;;;;;25.23;18.90;;;;;;;;;;5080595;28;20445;-77
2021/11/15 13:15:45;;;;;;;24.65;17.63;;;;;;;;;;5101536;28;20416;-76
2021/11/15 13:18:10;;;;;;;24.05;18.40;;;;;;;;;;5078712;28;20081;-76
2021/11/15 13:20:36;;;;;;;24.13;17.98;;;;;;;;;;5090265;28;20035;-76
2021/11/15 13:23:03;;;;;;;22.98;17.38;;;;;;;;;;5072015;28;20020;-76
2021/11/15 13:25:28;;;;;;;25.60;18.17;;;;;;;;;;5082865;28;20020;-76
2021/11/15 13:27:54;;;;;;;25.13;18.52;;;;;;;;;;5066685;28;20066;-76
2021/11/15 13:30:21;;;;;;;25.05;19.25;;;;;;;;;;5073137;28;20149;-75
2021/11/15 13:32:53;;;;;;;24.52;18.17;;;;;;;;;;5076719;28;20067;-76
2021/11/15 13:35:20;;;;;;;25.42;18.25;;;;;;;;;;5083864;28;20059;-77
2021/11/15 13:37:46;;;;;;;26.35;19.00;;;;;;;;;;5091284;28;20099;-75
2021/11/15 13:40:11;;;;;;;27.42;19.27;;;;;;;;;;5079580;28;20472;-76
2021/11/15 13:42:36;;;;;;;25.33;19.40;;;;;;;;;;5079744;28;20031;-77
2021/11/15 13:45:03;;;;;;;27.55;19.05;;;;;;;;;;5079648;28;20027;-76
2021/11/15 13:47:28;;;;;;;27.00;19.55;;;;;;;;;;5081480;28;20481;-77
2021/11/15 13:49:53;;;;;;;25.83;19.85;;;;;;;;;;5096909;28;20063;-79
2021/11/15 13:52:18;;;;;;;26.70;19.65;;;;;;;;;;5073320;28;20056;-75
2021/11/15 13:54:47;;;;;;;27.08;19.50;;;;;;;;;;5074911;28;20159;-75
2021/11/15 13:57:12;;;;;;;27.50;19.17;;;;;;;;;;5092409;28;20099;-75
2021/11/15 13:59:38;;;;;;;28.20;20.55;;;;;;;;;;5078454;28;20146;-75
2021/11/15 14:02:03;;;;;;;26.13;19.48;;;;;;;;;;5075803;28;20380;-76
2021/11/15 14:04:28;;;;;;;24.77;19.52;;;;;;;;;;5079474;28;20125;-75
2021/11/15 14:06:54;;;;;;;25.90;19.75;;;;;;;;;;5072494;28;20020;-75
2021/11/15 14:09:19;;;;;;;29.58;20.27;;;;;;;;;;5075449;28;20027;-75
2021/11/15 14:11:45;;;;;;;25.55;19.25;;;;;;;;;;5081869;28;20113;-75
2021/11/15 14:14:10;;;;;;;28.92;21.00;;;;;;;;;;5084276;28;20023;-75
2021/11/15 14:16:38;;;;;;;30.08;21.55;;;;;;;;;;5079079;28;20430;-76
2021/11/15 14:19:05;;;;;;;28.90;21.55;;;;;;;;;;5089845;28;20020;-75